sensor_id;sensor_type;location;lat;lon;timestamp;temperature;humidity
48575;DHT22;34352;51.084;3.712;2023-02-28T01:24:14;2.80;99.90
48575;DHT22;34352;51.084;3.712;2023-02-28T05:42:02;3.50;99.90
48575;DHT22;34352;51.084;3.712;2023-02-28T05:52:14;3.50;99.90
48575;DHT22;34352;51.084;3.712;2023-02-28T05:59:56;3.50;99.90
48575;DHT22;34352;51.084;3.712;2023-02-28T06:20:39;3.50;99.90
48575;DHT22;34352;51.084;3.712;2023-02-28T06:23:06;3.40;99.90
48575;DHT22;34352;51.084;3.712;2023-02-28T06:25:32;5.00;99.90
48575;DHT22;34352;51.084;3.712;2023-02-28T06:41:02;3.60;99.90
48575;DHT22;34352;51.084;3.712;2023-02-28T07:07:29;3.70;99.90
48575;DHT22;34352;51.084;3.712;2023-02-28T07:10:11;3.80;99.90
48575;DHT22;34352;51.084;3.712;2023-02-28T07:12:59;2.40;99.90
48575;DHT22;34352;51.084;3.712;2023-02-28T07:15:25;4.90;99.90
48575;DHT22;34352;51.084;3.712;2023-02-28T07:17:58;4.00;99.90
48575;DHT22;34352;51.084;3.712;2023-02-28T07:22:59;4.00;99.90
48575;DHT22;34352;51.084;3.712;2023-02-28T07:25:27;3.90;99.90
48575;DHT22;34352;51.084;3.712;2023-02-28T07:27:56;3.80;99.90
48575;DHT22;34352;51.084;3.712;2023-02-28T07:30:30;5.50;99.90
48575;DHT22;34352;51.084;3.712;2023-02-28T07:33:04;4.50;99.90
48575;DHT22;34352;51.084;3.712;2023-02-28T07:35:32;5.00;99.90
48575;DHT22;34352;51.084;3.712;2023-02-28T07:38:02;3.90;99.90
48575;DHT22;34352;51.084;3.712;2023-02-28T07:41:06;2.70;99.90
48575;DHT22;34352;51.084;3.712;2023-02-28T07:46:15;4.10;99.90
48575;DHT22;34352;51.084;3.712;2023-02-28T07:49:02;2.60;99.90
48575;DHT22;34352;51.084;3.712;2023-02-28T07:51:30;3.80;99.90
48575;DHT22;34352;51.084;3.712;2023-02-28T07:53:56;4.20;99.90
48575;DHT22;34352;51.084;3.712;2023-02-28T07:56:56;3.70;99.90
48575;DHT22;34352;51.084;3.712;2023-02-28T08:04:48;4.30;99.90
48575;DHT22;34352;51.084;3.712;2023-02-28T08:07:16;5.30;99.90
48575;DHT22;34352;51.084;3.712;2023-02-28T08:09:44;4.40;99.90
48575;DHT22;34352;51.084;3.712;2023-02-28T08:12:11;4.20;99.90
48575;DHT22;34352;51.084;3.712;2023-02-28T08:14:38;4.30;99.90
48575;DHT22;34352;51.084;3.712;2023-02-28T08:17:06;4.10;99.90
48575;DHT22;34352;51.084;3.712;2023-02-28T08:19:39;4.50;99.90
48575;DHT22;34352;51.084;3.712;2023-02-28T08:22:35;5.00;99.90
48575;DHT22;34352;51.084;3.712;2023-02-28T08:25:16;3.60;99.90
48575;DHT22;34352;51.084;3.712;2023-02-28T08:28:01;3.20;99.90
48575;DHT22;34352;51.084;3.712;2023-02-28T08:30:29;3.70;99.90
48575;DHT22;34352;51.084;3.712;2023-02-28T08:32:55;4.60;99.90
48575;DHT22;34352;51.084;3.712;2023-02-28T08:35:22;4.80;99.90
48575;DHT22;34352;51.084;3.712;2023-02-28T08:37:50;4.70;99.90
48575;DHT22;34352;51.084;3.712;2023-02-28T08:40:16;5.10;99.90
48575;DHT22;34352;51.084;3.712;2023-02-28T08:42:46;4.70;99.90
48575;DHT22;34352;51.084;3.712;2023-02-28T08:45:13;4.60;99.90
48575;DHT22;34352;51.084;3.712;2023-02-28T08:47:41;4.70;99.90
48575;DHT22;34352;51.084;3.712;2023-02-28T08:50:07;4.60;99.90
48575;DHT22;34352;51.084;3.712;2023-02-28T08:52:33;4.40;99.90
48575;DHT22;34352;51.084;3.712;2023-02-28T08:55:00;4.90;99.90
48575;DHT22;34352;51.084;3.712;2023-02-28T08:57:26;5.80;99.90
48575;DHT22;34352;51.084;3.712;2023-02-28T08:59:52;3.50;99.90
48575;DHT22;34352;51.084;3.712;2023-02-28T09:02:18;4.60;99.90
48575;DHT22;34352;51.084;3.712;2023-02-28T09:04:44;4.70;99.90
48575;DHT22;34352;51.084;3.712;2023-02-28T09:07:11;5.70;99.90
48575;DHT22;34352;51.084;3.712;2023-02-28T09:09:39;5.80;99.90
48575;DHT22;34352;51.084;3.712;2023-02-28T09:12:23;4.60;99.90
48575;DHT22;34352;51.084;3.712;2023-02-28T09:14:51;4.60;99.90
48575;DHT22;34352;51.084;3.712;2023-02-28T09:17:19;6.00;99.90
48575;DHT22;34352;51.084;3.712;2023-02-28T09:19:50;5.00;99.90
48575;DHT22;34352;51.084;3.712;2023-02-28T09:22:16;4.90;99.90
48575;DHT22;34352;51.084;3.712;2023-02-28T09:24:43;5.50;99.90
48575;DHT22;34352;51.084;3.712;2023-02-28T09:27:10;3.40;99.90
48575;DHT22;34352;51.084;3.712;2023-02-28T09:29:35;4.70;99.90
48575;DHT22;34352;51.084;3.712;2023-02-28T09:32:03;4.50;99.90
48575;DHT22;34352;51.084;3.712;2023-02-28T09:34:33;4.50;99.90
48575;DHT22;34352;51.084;3.712;2023-02-28T09:37:00;3.10;99.90
48575;DHT22;34352;51.084;3.712;2023-02-28T09:39:26;4.40;99.90
48575;DHT22;34352;51.084;3.712;2023-02-28T09:41:54;6.50;99.90
48575;DHT22;34352;51.084;3.712;2023-02-28T09:44:39;6.10;99.90
48575;DHT22;34352;51.084;3.712;2023-02-28T09:47:32;4.50;99.90
48575;DHT22;34352;51.084;3.712;2023-02-28T09:50:06;4.50;99.90
48575;DHT22;34352;51.084;3.712;2023-02-28T09:52:39;4.40;99.90
48575;DHT22;34352;51.084;3.712;2023-02-28T09:55:33;4.40;99.90
48575;DHT22;34352;51.084;3.712;2023-02-28T09:58:30;4.60;99.90
48575;DHT22;34352;51.084;3.712;2023-02-28T10:01:15;4.80;99.90
48575;DHT22;34352;51.084;3.712;2023-02-28T10:03:59;4.70;99.90
48575;DHT22;34352;51.084;3.712;2023-02-28T10:06:32;4.70;99.90
48575;DHT22;34352;51.084;3.712;2023-02-28T10:09:09;4.50;99.90
48575;DHT22;34352;51.084;3.712;2023-02-28T10:11:40;4.70;99.90
48575;DHT22;34352;51.084;3.712;2023-02-28T10:14:16;4.90;99.90
48575;DHT22;34352;51.084;3.712;2023-02-28T10:16:50;4.90;99.90
48575;DHT22;34352;51.084;3.712;2023-02-28T10:30:34;5.40;99.90
48575;DHT22;34352;51.084;3.712;2023-02-28T10:33:00;5.50;99.90
48575;DHT22;34352;51.084;3.712;2023-02-28T10:35:26;5.70;99.90
48575;DHT22;34352;51.084;3.712;2023-02-28T10:41:15;6.40;99.90
48575;DHT22;34352;51.084;3.712;2023-02-28T10:43:43;6.40;99.90
48575;DHT22;34352;51.084;3.712;2023-02-28T10:46:15;6.20;99.90
48575;DHT22;34352;51.084;3.712;2023-02-28T10:49:03;6.30;99.90
48575;DHT22;34352;51.084;3.712;2023-02-28T10:51:36;6.10;99.90
48575;DHT22;34352;51.084;3.712;2023-02-28T10:54:27;6.20;99.90
48575;DHT22;34352;51.084;3.712;2023-02-28T10:59:45;5.70;99.90
48575;DHT22;34352;51.084;3.712;2023-02-28T11:02:36;7.50;99.90
48575;DHT22;34352;51.084;3.712;2023-02-28T11:08:06;7.80;99.90
48575;DHT22;34352;51.084;3.712;2023-02-28T11:10:39;8.50;99.90
48575;DHT22;34352;51.084;3.712;2023-02-28T11:13:20;9.80;99.90
48575;DHT22;34352;51.084;3.712;2023-02-28T11:15:57;11.30;99.90
48575;DHT22;34352;51.084;3.712;2023-02-28T11:21:03;13.60;99.90
48575;DHT22;34352;51.084;3.712;2023-02-28T11:23:32;14.20;99.90
48575;DHT22;34352;51.084;3.712;2023-02-28T11:26:02;14.30;99.90
48575;DHT22;34352;51.084;3.712;2023-02-28T11:28:34;13.30;99.90
48575;DHT22;34352;51.084;3.712;2023-02-28T11:31:16;12.10;99.90
48575;DHT22;34352;51.084;3.712;2023-02-28T11:33:49;12.00;99.90
48575;DHT22;34352;51.084;3.712;2023-02-28T11:38:48;12.90;99.90
48575;DHT22;34352;51.084;3.712;2023-02-28T11:53:19;12.40;99.90
48575;DHT22;34352;51.084;3.712;2023-02-28T14:18:33;11.80;1.00
48575;DHT22;34352;51.084;3.712;2023-02-28T15:26:55;9.00;99.90
48575;DHT22;34352;51.084;3.712;2023-02-28T15:29:54;9.10;99.90
48575;DHT22;34352;51.084;3.712;2023-02-28T15:32:36;8.60;99.90
48575;DHT22;34352;51.084;3.712;2023-02-28T15:37:52;8.70;99.90
48575;DHT22;34352;51.084;3.712;2023-02-28T16:50:26;6.10;99.90
48575;DHT22;34352;51.084;3.712;2023-02-28T16:59:02;6.10;99.90
48575;DHT22;34352;51.084;3.712;2023-02-28T17:01:30;5.90;99.90
48575;DHT22;34352;51.084;3.712;2023-02-28T17:03:59;5.00;99.90
48575;DHT22;34352;51.084;3.712;2023-02-28T17:06:30;5.70;99.90
48575;DHT22;34352;51.084;3.712;2023-02-28T17:20:05;5.80;99.90
48575;DHT22;34352;51.084;3.712;2023-02-28T17:25:10;5.70;99.90
48575;DHT22;34352;51.084;3.712;2023-02-28T17:36:13;4.70;99.90
48575;DHT22;34352;51.084;3.712;2023-02-28T18:02:06;4.90;99.90
48575;DHT22;34352;51.084;3.712;2023-02-28T18:07:11;4.90;99.90
48575;DHT22;34352;51.084;3.712;2023-02-28T18:09:37;4.90;99.90
48575;DHT22;34352;51.084;3.712;2023-02-28T18:12:05;3.50;99.90
48575;DHT22;34352;51.084;3.712;2023-02-28T18:14:30;4.10;99.90
48575;DHT22;34352;51.084;3.712;2023-02-28T18:16:56;4.10;99.90
48575;DHT22;34352;51.084;3.712;2023-02-28T18:19:24;4.60;99.90
48575;DHT22;34352;51.084;3.712;2023-02-28T18:25:12;3.80;99.90
48575;DHT22;34352;51.084;3.712;2023-02-28T18:27:41;4.60;99.90
48575;DHT22;34352;51.084;3.712;2023-02-28T18:30:31;4.60;99.90
